Terminal Aerodrome Forecast
Issued by NWS Bismarck, ND

Home | Current Version | Previous Version | Text Only | Print | Product List | Glossary On
Versions: 1 2 3 4 5 6 7 8 9 10 11 12 13 14 15 16 17 18 19 20
000
FTUS43 KBIS 050548
TAFISN
TAF
KISN 050548Z 0506/0606 04011KT 4SM BR BKN008 OVC012
      TEMPO 0508/0509 5SM -SHRA BR BKN011
     FM050900 05008KT P6SM SHRA VCTS BKN018 OVC070CB
      TEMPO 0509/0511 TSRA BKN015 OVC025CB
     FM051300 05014KT 4SM -SHRA BR SCT007 OVC012
     FM051800 09014G19KT P6SM VCSH BKN015 OVC025
     FM060200 04011KT P6SM -SHRA VCTS BKN025 OVC050CB=

USA.gov is the U.S. government's official web portal to all federal, state and local government web resources and services.